West End, Virginia
Current Conditions -  °F | °C
As of 11:54 AM on Wednesday 22 Oct 2014 (Local Time) from KOFP Reporting Station
Light Rain Light Rain  
Wind Chill: 52°   Ceiling: 6500
Heat Index: 52°   Visibility: 7mi
Dew Point: 51°   Wind: 12mph
Humidity: 97%   Direction: 310°NW
Pressure: 29.95"   Gusts: 18mph
Location:  37.5861°N, 77.4907°W
Report Text: KOFP 221554Z AUTO 31010G16KT 7SM -RA FEW012 OVC065 11/11 A2995 RMK AO2 SLP140 P0009 T01110106
Loading
Personal Weather Stations






























Interactive Weather Map
Tropical Storm Tracking
New forecast layout! Learn more

10-Day Weather Forecast

Advertisements
Track Severe Weather on mobile